MAPA DE AEROPUERTO

INFORMACIÓN METAR y TAF


Deprecated: The each() function is deprecated. This message will be suppressed on further calls in /home/customer/www/clickair-va.com/public_html/VAM/vam/helpers/get_metar.php on line 20
METAR FOR EKVG
ADDS - METARS form results

(1902 UTC 13 January 2023)
Data provider http://aviationweather.gov/metar/data/
 
METAR text: EKVG 131850Z AUTO 07006KT 040V110 9999 OVC047/// 01/M05 Q1002 RMK OVC045/// WIND SKEID 08012KT
Conditions at: EKVG (SORVAAG/VAGAR , DK) observed 1850 UTC 13 January 2023
Temperature: 1.0°C (34°F)
Dewpoint: -5.0°C (23°F) [RH = 64%]
Pressure (altimeter): 29.59 inches Hg (1002.0 mb)
Winds: from the ENE (70 degrees) at 7 MPH (6 knots; 3.1 m/s)
Visibility: 6 or more miles (10+ km)
Ceiling: 4700 feet AGL
Clouds: overcast cloud deck at 4700 feet AGL
Weather: no significant weather observed at this time

METAR text: EKVG 131820Z AUTO 05006KT 010V100 9999 OVC047/// 01/M05 Q1002 RMK OVC046/// WIND SKEID 06013KT
Conditions at: EKVG (SORVAAG/VAGAR , DK) observed 1820 UTC 13 January 2023
Temperature: 1.0°C (34°F)
Dewpoint: -5.0°C (23°F) [RH = 64%]
Pressure (altimeter): 29.59 inches Hg (1002.0 mb)
Winds: from the NE (50 degrees) at 7 MPH (6 knots; 3.1 m/s)
Visibility: 6 or more miles (10+ km)
Ceiling: 4700 feet AGL
Clouds: overcast cloud deck at 4700 feet AGL
Weather: no significant weather observed at this time

Forecast for: EKVG (SORVAAG/VAGAR , DK)
Text: TAF EKVG 131411Z 1315/1321 02014KT 9999 BKN040
Forecast period: 1500 to 2100 UTC 13 January 2023
Forecast type: FROM: standard forecast or significant change
Winds: from the NNE (20 degrees) at 16 MPH (14 knots; 7.2 m/s)
Visibility: 6 or more miles (10+ km)
Ceiling: 4000 feet AGL
Clouds: broken clouds at 4000 feet AGL
Weather: no significant weather forecast for this period
Text: TEMPO 1317/1321 3000 SHSN BKN014
Forecast period: 1700 to 2100 UTC 13 January 2023
Forecast type: TEMPORARY: The following changes expected for less than half the time period
Visibility: 1.86 miles (2.99 km)
Ceiling: 1400 feet AGL
Clouds: broken clouds at 1400 feet AGL
Weather: SHSN  (snow showers)